createdAt,value
2022-10-22T00:01:05.840Z,1.53
2022-10-22T00:03:32.884Z,1.58
2022-10-22T00:05:59.755Z,1.60
2022-10-22T00:08:26.561Z,1.67
2022-10-22T00:10:53.572Z,1.73
2022-10-22T00:13:20.611Z,1.79
2022-10-22T00:15:47.490Z,1.82
2022-10-22T00:18:14.239Z,1.87
2022-10-22T00:20:41.261Z,1.89
2022-10-22T00:23:08.007Z,1.89
2022-10-22T00:25:36.202Z,1.88
2022-10-22T00:28:03.750Z,1.90
2022-10-22T00:30:30.571Z,1.88
2022-10-22T00:32:57.308Z,1.89
2022-10-22T00:35:24.062Z,1.91
2022-10-22T00:37:50.808Z,1.92
2022-10-22T00:40:17.628Z,1.92
2022-10-22T00:42:44.315Z,1.93
2022-10-22T00:45:10.987Z,1.90
2022-10-22T00:47:48.831Z,1.82
2022-10-22T00:50:24.680Z,1.79
2022-10-22T00:52:51.794Z,1.76
2022-10-22T00:55:20.762Z,1.72
2022-10-22T00:57:48.503Z,1.68
2022-10-22T01:00:15.927Z,1.63
2022-10-22T01:02:43.028Z,1.63
2022-10-22T01:05:10.496Z,1.63
2022-10-22T01:07:47.331Z,1.65
2022-10-22T01:10:20.017Z,1.67
2022-10-22T01:12:46.744Z,1.71
2022-10-22T01:15:22.223Z,1.73
2022-10-22T01:18:09.495Z,1.77
2022-10-22T01:20:39.197Z,1.82
2022-10-22T01:23:22.014Z,1.83
2022-10-22T01:26:28.226Z,1.91
2022-10-22T01:29:05.552Z,1.86
2022-10-22T01:31:38.140Z,1.93
2022-10-22T01:34:08.399Z,2.00
2022-10-22T01:36:37.509Z,2.05
2022-10-22T01:39:06.358Z,2.07
2022-10-22T01:41:35.217Z,2.08
2022-10-22T01:44:02.024Z,2.09
2022-10-22T01:46:29.692Z,2.09
2022-10-22T01:49:02.289Z,2.08
2022-10-22T01:51:47.067Z,2.14
2022-10-22T01:54:26.654Z,2.14
2022-10-22T01:57:10.452Z,2.14
2022-10-22T02:00:00.245Z,2.13
2022-10-22T02:02:36.003Z,2.12
2022-10-22T02:05:13.046Z,2.09
2022-10-22T02:07:46.920Z,2.03
2022-10-22T02:10:14.481Z,2.04
2022-10-22T02:12:43.276Z,1.99
2022-10-22T02:15:12.439Z,1.93
2022-10-22T02:17:42.536Z,1.93
2022-10-22T02:20:22.268Z,1.88
2022-10-22T02:22:49.098Z,1.85
2022-10-22T02:25:17.004Z,1.80
2022-10-22T02:27:49.488Z,1.76
2022-10-22T02:30:21.486Z,1.73
2022-10-22T02:33:07.025Z,1.71
2022-10-22T02:35:35.419Z,1.69
2022-10-22T02:38:03.398Z,1.71
2022-10-22T02:40:32.009Z,1.74
2022-10-22T02:42:59.190Z,1.78
2022-10-22T02:45:26.073Z,1.86
2022-10-22T02:47:52.951Z,1.94
2022-10-22T02:50:19.679Z,1.98
2022-10-22T02:52:46.404Z,2.03
2022-10-22T02:55:13.468Z,2.03
2022-10-22T02:57:40.484Z,2.06
2022-10-22T03:00:09.456Z,2.09
2022-10-22T03:02:36.380Z,2.14
2022-10-22T03:05:04.449Z,2.17
2022-10-22T03:07:31.291Z,2.23
2022-10-22T03:09:57.985Z,2.29
2022-10-22T03:12:24.714Z,2.29
2022-10-22T03:14:51.442Z,2.36
2022-10-22T03:17:19.093Z,2.43
2022-10-22T03:19:45.781Z,2.48
2022-10-22T03:22:24.982Z,2.52
2022-10-22T03:24:58.414Z,2.62
2022-10-22T03:27:28.402Z,2.67
2022-10-22T03:29:56.885Z,2.75
2022-10-22T03:32:23.597Z,2.79
2022-10-22T03:34:50.424Z,2.85
2022-10-22T03:37:17.466Z,2.92
2022-10-22T03:39:44.485Z,2.97
2022-10-22T03:42:13.312Z,3.01
2022-10-22T03:44:40.823Z,3.05
2022-10-22T03:47:07.882Z,3.05
2022-10-22T03:49:34.699Z,3.02
2022-10-22T03:52:12.901Z,3.02
2022-10-22T03:54:40.334Z,2.89
2022-10-22T03:57:07.386Z,2.79
2022-10-22T03:59:42.681Z,2.85
2022-10-22T04:02:10.289Z,2.91
2022-10-22T04:04:37.648Z,2.96
2022-10-22T04:07:05.858Z,2.95
2022-10-22T04:09:33.614Z,2.95
2022-10-22T04:12:01.048Z,2.92
2022-10-22T04:14:27.904Z,2.82
2022-10-22T04:16:54.794Z,2.77
2022-10-22T04:19:21.617Z,2.75
2022-10-22T04:21:48.396Z,2.69
2022-10-22T04:24:15.384Z,2.66
2022-10-22T04:26:42.373Z,2.61
2022-10-22T04:29:13.389Z,2.44
2022-10-22T04:31:43.306Z,2.49
2022-10-22T04:34:10.173Z,2.55
2022-10-22T04:36:36.901Z,2.60
2022-10-22T04:39:04.856Z,2.61
2022-10-22T04:41:39.199Z,2.67
2022-10-22T04:44:09.885Z,2.78
2022-10-22T04:46:40.253Z,2.80
2022-10-22T04:49:07.019Z,2.89
2022-10-22T04:51:33.803Z,3.04
2022-10-22T04:54:00.619Z,3.10
2022-10-22T04:56:30.231Z,3.27
2022-10-22T04:59:02.738Z,3.33
2022-10-22T05:01:32.523Z,3.40
2022-10-22T05:04:02.174Z,3.46
2022-10-22T05:06:30.553Z,3.58
2022-10-22T05:09:00.205Z,3.57
2022-10-22T05:11:33.992Z,3.68
2022-10-22T05:14:03.046Z,3.71
2022-10-22T05:16:33.914Z,3.82
2022-10-22T05:19:02.052Z,3.91
2022-10-22T05:21:29.064Z,3.97
2022-10-22T05:23:57.398Z,4.06
2022-10-22T05:26:25.165Z,4.17
2022-10-22T05:28:52.805Z,4.44
2022-10-22T05:31:20.041Z,4.63
2022-10-22T05:33:47.599Z,4.67
2022-10-22T05:36:19.100Z,4.86
2022-10-22T05:38:46.308Z,4.96
2022-10-22T05:41:16.471Z,5.18
2022-10-22T05:43:43.519Z,5.38
2022-10-22T05:46:12.956Z,5.64
2022-10-22T05:48:40.264Z,5.77
2022-10-22T05:51:10.173Z,6.05
2022-10-22T05:53:39.178Z,6.34
2022-10-22T05:56:16.840Z,6.65
2022-10-22T05:58:45.519Z,6.77
2022-10-22T06:01:24.498Z,6.89
2022-10-22T06:03:54.894Z,7.04
2022-10-22T06:06:24.232Z,7.21
2022-10-22T06:08:52.921Z,6.97
2022-10-22T06:11:21.132Z,6.89
2022-10-22T06:13:49.582Z,6.90
2022-10-22T06:16:16.609Z,6.80
2022-10-22T06:18:43.360Z,6.69
2022-10-22T06:21:16.057Z,6.68
2022-10-22T06:23:43.250Z,6.43
2022-10-22T06:26:11.000Z,6.34
2022-10-22T06:28:38.549Z,6.27
2022-10-22T06:31:05.628Z,6.23
2022-10-22T06:33:34.343Z,6.22
2022-10-22T06:36:10.206Z,6.28
2022-10-22T06:38:36.928Z,6.33
2022-10-22T06:41:09.967Z,6.37
2022-10-22T06:43:37.045Z,6.53
2022-10-22T06:46:07.259Z,6.71
2022-10-22T06:48:36.087Z,6.76
2022-10-22T08:01:42.654Z,8.18
2022-10-22T08:04:09.966Z,8.02
2022-10-22T08:06:37.056Z,7.97
2022-10-22T08:09:04.097Z,8.05
2022-10-22T08:11:33.526Z,8.08
2022-10-22T08:14:00.750Z,8.17
2022-10-22T08:16:27.596Z,8.20
2022-10-22T08:18:54.401Z,8.16
2022-10-22T08:21:21.167Z,8.24
2022-10-22T08:23:47.911Z,8.15
2022-10-22T08:26:14.691Z,8.18
2022-10-22T08:28:41.681Z,8.07
2022-10-22T08:31:08.896Z,7.92
2022-10-22T08:33:35.809Z,7.74
2022-10-22T08:36:02.814Z,7.68
2022-10-22T08:38:31.415Z,7.54
2022-10-22T08:41:07.720Z,7.52
2022-10-22T08:43:59.102Z,7.59
2022-10-22T08:46:25.838Z,7.77
2022-10-22T08:49:00.435Z,7.88
2022-10-22T08:51:34.374Z,8.02
2022-10-22T08:54:19.483Z,8.10
2022-10-22T08:56:57.299Z,8.09
2022-10-22T08:59:30.424Z,8.10
2022-10-22T09:01:57.352Z,8.13
2022-10-22T09:04:30.944Z,8.29
2022-10-22T09:06:59.598Z,8.35
2022-10-22T09:09:31.823Z,8.40
2022-10-22T09:12:00.710Z,8.65
2022-10-22T09:14:27.770Z,8.83
2022-10-22T09:17:00.217Z,9.21
2022-10-22T09:19:26.925Z,9.58
2022-10-22T09:22:27.346Z,10.03
2022-10-22T09:25:21.338Z,10.38
2022-10-22T09:27:49.277Z,10.28
2022-10-22T09:30:18.695Z,10.20
2022-10-22T09:32:45.771Z,10.35
2022-10-22T09:35:15.199Z,10.61
2022-10-22T09:37:50.177Z,10.87
2022-10-22T09:40:18.336Z,10.88
2022-10-22T09:42:46.839Z,10.75
2022-10-22T09:45:21.060Z,10.72
2022-10-22T09:48:03.984Z,10.57
2022-10-22T09:50:47.541Z,10.54
2022-10-22T09:53:17.274Z,10.45
2022-10-22T09:55:49.125Z,10.65
2022-10-22T09:58:19.528Z,10.86
2022-10-22T10:00:51.451Z,10.80
2022-10-22T10:03:21.736Z,10.56
2022-10-22T10:05:53.459Z,10.68
2022-10-22T10:08:20.896Z,10.84
2022-10-22T10:10:54.653Z,11.03
2022-10-22T10:13:21.286Z,11.24
2022-10-22T10:16:12.080Z,11.49
2022-10-22T10:18:58.925Z,11.76
2022-10-22T10:21:57.284Z,11.37
2022-10-22T10:24:39.011Z,11.71
2022-10-22T10:27:15.453Z,11.70
2022-10-22T10:29:58.281Z,11.70
2022-10-22T10:32:37.298Z,11.44
2022-10-22T10:35:25.596Z,11.56
2022-10-22T10:38:14.002Z,11.68
2022-10-22T10:40:55.598Z,11.38
2022-10-22T10:43:49.986Z,11.29
2022-10-22T10:46:39.862Z,11.27
2022-10-22T10:49:23.265Z,11.28
2022-10-22T10:52:20.483Z,11.28
2022-10-22T10:55:06.950Z,11.42
2022-10-22T10:57:44.464Z,11.25
2022-10-22T11:00:20.832Z,11.20
2022-10-22T11:03:09.129Z,11.19
2022-10-22T11:05:44.322Z,11.36
2022-10-22T11:08:25.297Z,11.62
2022-10-22T11:10:57.835Z,11.85
2022-10-22T11:13:40.351Z,12.05
2022-10-22T11:16:25.093Z,11.99
2022-10-22T11:19:22.731Z,12.08
2022-10-22T11:21:52.840Z,12.29
2022-10-22T11:25:03.109Z,12.52
2022-10-22T11:27:48.761Z,12.66
2022-10-22T11:30:24.648Z,12.60
2022-10-22T11:32:58.177Z,12.81
2022-10-22T11:35:28.762Z,12.88
2022-10-22T11:37:57.412Z,13.04
2022-10-22T11:41:01.394Z,13.25
2022-10-22T11:43:32.726Z,13.39
2022-10-22T11:46:27.389Z,13.12
2022-10-22T11:49:15.349Z,12.78
2022-10-22T11:51:44.012Z,12.96
2022-10-22T11:54:32.654Z,12.88
2022-10-22T11:57:14.561Z,12.81
2022-10-22T11:59:47.462Z,12.80
2022-10-22T12:02:23.125Z,12.70
2022-10-22T12:04:50.135Z,12.93
2022-10-22T12:07:35.814Z,13.33
2022-10-22T12:10:18.475Z,13.65
2022-10-22T12:12:55.768Z,13.65
2022-10-22T12:15:29.033Z,13.75
2022-10-22T12:18:05.538Z,13.56
2022-10-22T12:20:32.454Z,13.50
2022-10-22T12:23:00.126Z,13.60
2022-10-22T12:25:35.596Z,13.79
2022-10-22T12:28:02.865Z,13.79
2022-10-22T12:30:34.705Z,13.57
2022-10-22T12:33:04.486Z,13.33
2022-10-22T12:35:43.182Z,13.04
2022-10-22T12:38:18.430Z,12.97
2022-10-22T12:40:48.400Z,12.65
2022-10-22T12:43:28.985Z,12.42
2022-10-22T12:45:57.813Z,12.05
2022-10-22T12:48:34.538Z,12.02
2022-10-22T12:51:04.118Z,11.97
2022-10-22T12:53:35.034Z,11.87
2022-10-22T12:56:25.336Z,11.86
2022-10-22T12:58:57.159Z,11.83
2022-10-22T13:01:27.985Z,11.82
2022-10-22T13:04:13.348Z,11.81
2022-10-22T13:06:45.761Z,11.76
2022-10-22T13:09:26.942Z,11.90
2022-10-22T13:12:02.342Z,11.89
2022-10-22T13:14:32.116Z,12.08
2022-10-22T13:17:15.175Z,12.03
2022-10-22T13:19:48.061Z,11.84
2022-10-22T13:22:35.527Z,11.70
2022-10-22T13:25:19.360Z,11.60
2022-10-22T13:27:48.358Z,11.56
2022-10-22T13:30:20.345Z,11.55
2022-10-22T13:32:57.611Z,11.54
2022-10-22T13:35:27.544Z,11.56
2022-10-22T13:37:54.467Z,11.48
2022-10-22T13:40:21.668Z,11.59
2022-10-22T13:42:48.513Z,11.60
2022-10-22T13:45:16.434Z,11.58
2022-10-22T13:47:48.565Z,11.61
2022-10-22T13:50:19.019Z,11.59
2022-10-22T13:52:54.691Z,11.46
2022-10-22T13:55:25.409Z,11.58
2022-10-22T13:57:55.667Z,11.54
2022-10-22T14:00:26.135Z,11.65
2022-10-22T14:02:55.531Z,11.58
2022-10-22T14:05:22.392Z,11.43
2022-10-22T14:07:49.629Z,11.42
2022-10-22T14:10:17.956Z,11.53
2022-10-22T14:12:49.285Z,11.53
2022-10-22T14:15:19.853Z,11.69
2022-10-22T14:17:52.146Z,11.92
2022-10-22T14:20:21.994Z,12.00
2022-10-22T14:22:50.136Z,12.17
2022-10-22T14:25:22.138Z,12.24
2022-10-22T14:27:48.980Z,12.20
2022-10-22T14:30:24.539Z,12.12
2022-10-22T14:32:52.005Z,11.97
2022-10-22T14:35:22.591Z,11.77
2022-10-22T14:37:49.880Z,11.60
2022-10-22T14:40:19.324Z,11.45
2022-10-22T14:42:48.094Z,11.34
2022-10-22T14:45:21.543Z,11.16
2022-10-22T14:47:50.136Z,10.98
2022-10-22T14:50:18.398Z,10.75
2022-10-22T14:52:45.488Z,10.57
2022-10-22T14:55:14.219Z,10.38
2022-10-22T14:57:41.689Z,10.21
2022-10-22T15:00:14.797Z,10.11
2022-10-22T15:02:41.974Z,10.06
2022-10-22T15:05:09.523Z,10.06
2022-10-22T15:07:36.743Z,10.11
2022-10-22T15:10:05.014Z,10.11
2022-10-22T15:12:32.307Z,10.11
2022-10-22T15:14:59.257Z,10.11
2022-10-22T15:17:26.125Z,10.10
2022-10-22T15:19:53.362Z,10.10
2022-10-22T15:22:20.830Z,10.07
2022-10-22T15:24:49.167Z,10.00
2022-10-22T15:27:16.284Z,9.91
2022-10-22T15:29:43.364Z,9.79
2022-10-22T15:32:13.039Z,9.64
2022-10-22T15:34:40.487Z,9.47
2022-10-22T15:37:10.370Z,9.33
2022-10-22T15:39:40.813Z,9.17
2022-10-22T15:58:38.310Z,8.33
2022-10-22T16:01:10.858Z,8.12
2022-10-22T16:03:38.195Z,7.95
2022-10-22T16:06:06.077Z,7.81
2022-10-22T16:08:33.560Z,7.71
2022-10-22T16:11:00.856Z,7.61
2022-10-22T16:13:28.034Z,7.52
2022-10-22T16:15:54.987Z,7.46
2022-10-22T16:18:23.787Z,7.48
2022-10-22T16:20:50.710Z,7.54
2022-10-22T16:23:19.127Z,7.62
2022-10-22T16:25:46.786Z,7.72
2022-10-22T16:28:14.352Z,7.84
2022-10-22T16:30:41.876Z,7.95
2022-10-22T16:33:10.139Z,8.07
2022-10-22T16:35:41.442Z,8.18
2022-10-22T16:38:10.604Z,8.29
2022-10-22T16:40:37.667Z,8.37
2022-10-22T16:43:04.719Z,8.44
2022-10-22T16:45:31.700Z,8.49
2022-10-22T16:47:58.624Z,8.54
2022-10-22T16:50:25.485Z,8.59
2022-10-22T16:52:52.689Z,8.62
2022-10-22T16:55:19.510Z,8.66
2022-10-22T16:57:53.741Z,8.71
2022-10-22T17:00:21.395Z,8.74
2022-10-22T17:02:53.180Z,8.79
2022-10-22T17:05:20.962Z,8.83
2022-10-22T17:07:48.081Z,8.86
2022-10-22T17:10:16.274Z,8.88
2022-10-22T17:12:43.487Z,8.87
2022-10-22T17:15:10.903Z,8.87
2022-10-22T17:17:39.137Z,8.85
2022-10-22T17:20:07.659Z,8.80
2022-10-22T17:22:34.643Z,8.73
2022-10-22T17:25:12.850Z,8.64
2022-10-22T17:27:40.885Z,8.54
2022-10-22T17:30:09.267Z,8.47
2022-10-22T17:32:39.046Z,8.47
2022-10-22T17:35:07.244Z,8.48
2022-10-22T17:37:35.052Z,8.50
2022-10-22T17:40:04.263Z,8.53
2022-10-22T17:42:31.520Z,8.57
2022-10-22T17:44:58.354Z,8.64
2022-10-22T17:47:25.173Z,8.71
2022-10-22T17:49:52.103Z,8.79
2022-10-22T17:52:18.943Z,8.88
2022-10-22T17:54:48.856Z,8.98
2022-10-22T17:57:16.141Z,9.04
2022-10-22T17:59:43.086Z,9.11
2022-10-22T18:02:15.495Z,9.16
2022-10-22T18:04:42.479Z,9.22
2022-10-22T18:07:13.491Z,9.25
2022-10-22T18:09:43.025Z,9.29
2022-10-22T18:12:11.894Z,9.33
2022-10-22T18:14:38.758Z,9.36
2022-10-22T18:17:05.676Z,9.35
2022-10-22T18:19:33.046Z,9.38
2022-10-22T18:22:00.668Z,9.39
2022-10-22T18:24:27.524Z,9.38
2022-10-22T18:26:54.505Z,9.37
2022-10-22T18:29:21.424Z,9.35
2022-10-22T18:31:48.993Z,9.33
2022-10-22T18:34:17.766Z,9.35
2022-10-22T18:36:47.156Z,9.37
2022-10-22T18:39:15.627Z,9.39
2022-10-22T18:41:43.426Z,9.43
2022-10-22T18:44:13.420Z,9.45
2022-10-22T18:46:40.644Z,9.48
2022-10-22T18:49:08.160Z,9.50
2022-10-22T18:51:36.296Z,9.52
2022-10-22T18:54:18.187Z,9.50
2022-10-22T18:56:48.736Z,9.59
2022-10-22T18:59:22.012Z,9.56
2022-10-22T19:01:49.492Z,9.47
2022-10-22T19:04:16.333Z,9.51
2022-10-22T19:06:46.029Z,9.65
2022-10-22T19:09:16.576Z,9.65
2022-10-22T19:11:47.150Z,9.74
2022-10-22T19:14:15.123Z,9.78
2022-10-22T21:02:18.954Z,8.85
2022-10-22T21:04:46.523Z,8.93
2022-10-22T21:07:13.477Z,9.02
2022-10-22T21:09:40.264Z,9.11
2022-10-22T21:12:07.204Z,9.21
2022-10-22T21:14:34.304Z,9.30
2022-10-22T21:17:01.170Z,9.37
2022-10-22T21:19:28.219Z,9.44
2022-10-22T21:21:55.161Z,9.48
2022-10-22T21:24:24.814Z,9.51
2022-10-22T21:26:52.558Z,9.52
2022-10-22T21:29:20.469Z,9.53
2022-10-22T21:31:47.518Z,9.54
2022-10-22T21:34:14.599Z,9.55
2022-10-22T21:36:41.446Z,9.54
2022-10-22T21:39:08.808Z,9.54
2022-10-22T21:41:37.476Z,9.53
2022-10-22T21:44:04.624Z,9.52
2022-10-22T21:46:31.401Z,9.51
2022-10-22T21:49:03.857Z,9.49
2022-10-22T21:51:33.043Z,9.46
2022-10-22T21:54:00.330Z,9.44
2022-10-22T21:56:30.140Z,9.41
2022-10-22T21:58:56.960Z,9.33
2022-10-22T22:01:24.233Z,9.33
2022-10-22T22:03:52.628Z,9.33
2022-10-22T22:06:22.031Z,9.35
2022-10-22T22:08:51.606Z,9.36
2022-10-22T22:11:21.207Z,9.36
2022-10-22T22:13:51.004Z,9.39
2022-10-22T22:16:25.494Z,9.37
2022-10-22T22:18:55.376Z,9.33
2022-10-22T22:21:22.181Z,9.35
2022-10-22T22:23:50.236Z,9.37
2022-10-22T22:26:25.262Z,9.39
2022-10-22T22:28:56.288Z,9.40
2022-10-22T22:31:26.161Z,9.44
2022-10-22T22:34:16.837Z,9.43
2022-10-22T22:36:46.319Z,9.44
2022-10-22T22:39:16.033Z,9.46
2022-10-22T22:41:43.434Z,9.46
2022-10-22T22:44:10.555Z,9.44
2022-10-22T22:46:37.385Z,9.40
2022-10-22T22:49:04.432Z,9.38
2022-10-22T22:51:31.640Z,9.36
2022-10-22T22:54:00.261Z,9.32
2022-10-22T22:56:30.163Z,9.29
2022-10-22T22:58:57.645Z,9.21
2022-10-22T23:01:27.076Z,9.10
2022-10-22T23:03:56.990Z,9.02
2022-10-22T23:06:25.837Z,9.06
2022-10-22T23:08:53.127Z,9.04
2022-10-22T23:11:21.043Z,9.04
2022-10-22T23:13:51.159Z,9.04
2022-10-22T23:16:23.637Z,9.02
2022-10-22T23:18:52.075Z,8.98
2022-10-22T23:21:27.026Z,8.95
2022-10-22T23:23:57.267Z,8.87
2022-10-22T23:26:27.784Z,8.85
2022-10-22T23:28:54.641Z,8.79
2022-10-22T23:31:24.112Z,8.76
2022-10-22T23:33:50.895Z,8.74
2022-10-22T23:36:17.741Z,8.67
2022-10-22T23:38:44.655Z,8.62
2022-10-22T23:41:11.492Z,8.64
2022-10-22T23:43:38.485Z,8.56
2022-10-22T23:46:06.894Z,8.50
2022-10-22T23:48:33.960Z,8.44
2022-10-22T23:51:09.322Z,8.40
2022-10-22T23:53:36.139Z,8.30
2022-10-22T23:56:05.185Z,8.30
2022-10-22T23:58:32.464Z,8.28
